Gooseberry Lake, Alberta

Past 24 Hour Conditions

This table is a summary of hourly weather conditions for the past 24 hours. This summary includes the following parameters: temperature, humidity, dew point, wind speed and direction, air pressure, visibility and/or wind chill and humidex.
Date / Time
(MDT)
Conditions Temp (°F) Humidity (%) Dew Point (°F) Wind (mph) Pressure (inches) Vis (mi) Wind Chill
19 April 2014
4:00 N/A 32   99 31 9 N/A N/A 24
3:00 N/A 32   100 31 8 N/A N/A 24
2:00 N/A 32   100 32 8 N/A N/A 24
1:00 N/A 32   100 32 11 N/A N/A 23
00:00 N/A 32   100 32 12 N/A N/A 23
18 April 2014
23:00 N/A 32   100 32 10 N/A N/A *
22:00 N/A 32   99 32 7 N/A N/A *
21:00 N/A 33 100 32 9 N/A N/A *
20:00 N/A 32   100 32 9 N/A N/A *
19:00 N/A 35 99 35 9 N/A N/A *
18:00 N/A 36 97 35 11 N/A N/A *
17:00 N/A 39 91 36 12 N/A N/A *
16:00 N/A 41 87 37 11 N/A N/A *
15:00 N/A 43 81 38 15 N/A N/A *
14:00 N/A 44   78 37 11 N/A N/A *
13:00 N/A 44   77 37 10 N/A N/A *
12:00 N/A 43 80 37 9 N/A N/A *
11:00 N/A 42 83 37 7 N/A N/A *
10:00 N/A 39 89 36 8 N/A N/A *
9:00 N/A 37 91 35 10 N/A N/A *
8:00 N/A 36 94 35 8 N/A N/A *
7:00 N/A 35 95 34 9 N/A N/A *
6:00 N/A 36 95 34 8 N/A N/A *
5:00 N/A 36 96 35 9 N/A N/A *
4:00 N/A 37 96 36 9 N/A N/A *
N/A
Not available
 ↑ 
Highest temperature
 ↓ 
Lowest temperature
*
Value not significant.

If you require additional historical weather information, please visit Climate Data Online.